Time;durP1;ratioP1;P1;durP2;ratioP2;P2;SDS_P1;SDS_P2;PMS_P1;PMS_P2;Temp;Humidity;BMP_temperature;BMP_pressure;BME280_temperature;BME280_humidity;BME280_pressure;Samples;Min_cycle;Max_cycle;Signal;HPM_P1;HPM_P2
2022/02/04 00:21:08;;;;;;;15.55;8.13;;;;;;;-0.40;60.61;99414.47;4993779;28;20038;-89
2022/02/04 00:23:35;;;;;;;18.13;9.07;;;;;;;-0.35;60.37;99412.53;4993467;28;20378;-87
2022/02/04 00:26:09;;;;;;;17.80;8.60;;;;;;;-0.40;60.41;99422.34;4992956;28;20058;-86
2022/02/04 00:28:49;;;;;;;12.45;7.55;;;;;;;-0.43;60.50;99417.19;4977232;28;20056;-85
2022/02/04 00:33:58;;;;;;;15.50;8.43;;;;;;;-0.39;60.69;99425.81;4992876;28;19928;-85
2022/02/04 00:36:42;;;;;;;16.25;7.72;;;;;;;-0.29;60.72;99416.72;4946225;28;20049;-86
2022/02/04 00:39:13;;;;;;;19.27;8.90;;;;;;;-0.29;60.08;99420.19;4993479;28;20038;-86
2022/02/04 00:41:41;;;;;;;19.35;8.65;;;;;;;-0.29;60.09;99432.47;4995726;28;20486;-87
2022/02/04 00:44:16;;;;;;;16.35;8.63;;;;;;;-0.26;60.56;99432.38;4998066;28;20035;-85
2022/02/04 00:49:32;;;;;;;19.23;9.52;;;;;;;-0.33;59.65;99431.72;4993829;28;20073;-85
2022/02/04 00:52:17;;;;;;;14.10;8.00;;;;;;;-0.28;60.14;99434.19;4966607;28;20104;-86
2022/02/04 00:55:33;;;;;;;12.95;6.88;;;;;;;-0.29;59.94;99433.34;4954613;28;20073;-87
2022/02/04 01:27:13;;;;;;;16.67;8.63;;;;;;;-0.69;61.52;99401.44;5005380;28;20048;-84
2022/02/04 01:29:53;;;;;;;22.80;10.50;;;;;;;-0.61;61.34;99405.53;4999723;28;20046;-86
2022/02/04 01:32:19;;;;;;;15.18;9.15;;;;;;;-0.57;60.93;99395.78;4998946;28;20185;-85
2022/02/04 01:34:46;;;;;;;17.75;9.60;;;;;;;-0.70;61.16;99399.75;4982820;28;20054;-86
2022/02/04 01:37:13;;;;;;;21.08;11.75;;;;;;;-0.65;61.70;99397.81;4999448;28;20050;-87
2022/02/04 01:39:39;;;;;;;18.75;10.32;;;;;;;-0.63;61.42;99401.25;5017382;28;20045;-85
2022/02/04 01:42:05;;;;;;;27.00;13.32;;;;;;;-0.65;61.79;99388.16;5017247;28;20132;-85
2022/02/04 01:44:31;;;;;;;24.80;12.57;;;;;;;-0.59;61.59;99402.88;5000569;28;20061;-86
2022/02/04 01:46:57;;;;;;;31.10;13.45;;;;;;;-0.47;61.58;99391.94;4999350;28;20054;-85
2022/02/04 01:49:24;;;;;;;33.65;14.88;;;;;;;-0.55;61.24;99375.59;5000987;28;20129;-86
2022/02/04 01:51:50;;;;;;;30.42;14.07;;;;;;;-0.45;61.75;99378.75;5001139;28;20065;-86
2022/02/04 01:54:16;;;;;;;29.73;12.73;;;;;;;-0.39;61.21;99386.44;5000926;28;20046;-86
2022/02/04 01:56:43;;;;;;;21.30;11.05;;;;;;;-0.36;61.11;99384.56;4999753;28;20655;-85
2022/02/04 01:59:09;;;;;;;20.10;11.02;;;;;;;-0.39;61.27;99376.78;4985115;28;20128;-85
2022/02/04 02:01:34;;;;;;;19.70;11.23;;;;;;;-0.44;61.66;99370.84;5003751;28;20054;-84
2022/02/04 02:04:04;;;;;;;15.68;10.25;;;;;;;-0.44;61.99;99372.59;5016481;28;20053;-86
2022/02/04 02:07:14;;;;;;;18.23;10.68;;;;;;;-0.51;61.90;99364.94;5015765;28;20524;-86
2022/02/04 02:09:45;;;;;;;18.58;9.38;;;;;;;-0.36;61.87;99374.03;4981976;28;20077;-85
2022/02/04 02:12:12;;;;;;;19.27;9.80;;;;;;;-0.32;61.63;99359.88;4996031;28;20050;-85
2022/02/04 02:14:39;;;;;;;19.10;9.20;;;;;;;-0.37;61.55;99363.59;4979196;28;20042;-83
2022/02/04 02:36:19;;;;;;;46.17;28.00;;;;;;;-0.27;60.44;99346.59;4971326;28;20042;-83
2022/02/04 02:39:15;;;;;;;50.97;27.50;;;;;;;-0.36;60.93;99337.28;4998584;28;20046;-84
2022/02/04 02:44:15;;;;;;;31.67;19.05;;;;;;;-0.48;61.44;99344.75;4996772;28;20046;-83
2022/02/04 02:59:33;;;;;;;35.25;17.83;;;;;;;-0.20;61.33;99341.97;4961015;28;20153;-87
2022/02/04 03:01:59;;;;;;;36.45;18.17;;;;;;;-0.20;61.51;99331.47;4927168;28;20462;-81
2022/02/04 03:04:25;;;;;;;33.28;18.33;;;;;;;-0.16;61.60;99333.06;4976558;28;20050;-83
2022/02/04 03:06:51;;;;;;;39.50;17.88;;;;;;;-0.10;61.19;99338.09;4976560;28;20130;-85
2022/02/04 03:09:17;;;;;;;31.27;18.48;;;;;;;-0.06;60.99;99334.44;4978481;28;20134;-83
2022/02/04 03:11:43;;;;;;;34.72;18.85;;;;;;;0.00;61.02;99344.75;4978512;28;20086;-83
2022/02/04 03:14:09;;;;;;;33.38;19.50;;;;;;;-0.03;61.20;99334.34;4975107;28;20047;-81
2022/02/04 03:16:36;;;;;;;39.45;20.77;;;;;;;-0.06;60.89;99334.44;4961064;28;20105;-80
2022/02/04 03:19:05;;;;;;;34.67;19.45;;;;;;;-0.06;61.32;99337.94;4961694;28;20182;-82
2022/02/04 03:21:38;;;;;;;36.30;19.88;;;;;;;-0.09;61.75;99332.78;4975739;28;20078;-81
2022/02/04 03:24:12;;;;;;;32.83;17.33;;;;;;;-0.06;61.42;99329.19;4975197;28;20046;-85
2022/02/04 03:29:22;;;;;;;25.45;12.80;;;;;;;-0.17;61.28;99332.22;4946217;28;20057;-84
2022/02/04 03:31:53;;;;;;;19.95;12.43;;;;;;;-0.10;61.83;99327.59;4974775;28;20046;-85
2022/02/04 03:34:19;;;;;;;20.85;10.80;;;;;;;-0.04;61.27;99316.84;4958474;28;20051;-82
2022/02/04 03:36:45;;;;;;;28.60;11.38;;;;;;;-0.03;61.65;99311.56;4975904;28;20078;-90
2022/02/04 03:39:11;;;;;;;21.08;11.05;;;;;;;-0.08;61.93;99321.34;4975299;28;20057;-82
2022/02/04 03:41:37;;;;;;;21.65;10.68;;;;;;;0.15;62.48;99317.88;4974582;28;20055;-84
2022/02/04 03:44:04;;;;;;;16.58;9.57;;;;;;;0.25;61.67;99318.38;4973387;28;20102;-83
2022/02/04 03:46:30;;;;;;;32.58;10.07;;;;;;;0.26;61.39;99319.22;4957650;28;20042;-81
2022/02/04 03:48:56;;;;;;;18.52;10.23;;;;;;;0.31;61.50;99312.91;4973883;28;20495;-91
2022/02/04 03:51:23;;;;;;;33.83;9.18;;;;;;;0.36;61.31;99320.59;4943868;28;20049;-84
2022/02/04 03:53:49;;;;;;;19.65;10.13;;;;;;;0.35;60.96;99319.75;4957533;28;20039;-80
2022/02/04 03:56:15;;;;;;;26.17;10.48;;;;;;;0.34;61.08;99325.94;4956678;28;20042;-82
2022/02/04 03:58:42;;;;;;;34.20;10.55;;;;;;;0.33;61.17;99324.19;4957113;28;20050;-83
2022/02/04 04:01:08;;;;;;;21.30;9.50;;;;;;;0.29;60.95;99304.19;4957950;28;20098;-80
2022/02/04 04:03:34;;;;;;;21.30;9.65;;;;;;;0.21;60.92;99317.63;4944050;28;20043;-78
2022/02/04 04:06:00;;;;;;;19.40;10.27;;;;;;;0.33;61.03;99325.97;4941476;28;20112;-80
2022/02/04 04:08:26;;;;;;;21.90;10.57;;;;;;;0.35;60.68;99324.16;4974311;28;20054;-81
2022/02/04 04:10:53;;;;;;;19.17;10.57;;;;;;;0.34;60.63;99332.94;4972629;28;20046;-90
2022/02/04 04:13:19;;;;;;;22.67;10.25;;;;;;;0.30;60.88;99323.44;4941338;28;20089;-82
2022/02/04 04:15:45;;;;;;;26.17;12.02;;;;;;;0.35;60.83;99338.16;4973522;28;20046;-82
2022/02/04 04:18:14;;;;;;;19.08;10.45;;;;;;;0.32;60.95;99334.78;4976418;28;20054;-83
2022/02/04 04:20:42;;;;;;;18.67;9.73;;;;;;;0.42;61.30;99336.16;4975445;28;20419;-83
2022/02/04 04:23:08;;;;;;;20.05;8.93;;;;;;;0.45;60.65;99338.63;4978738;28;20046;-79
2022/02/04 04:25:35;;;;;;;19.98;10.02;;;;;;;0.43;60.54;99337.84;4966701;28;20050;-85
2022/02/04 04:28:01;;;;;;;25.27;10.90;;;;;;;0.38;60.59;99331.94;4957846;28;20050;-86
2022/02/04 04:30:28;;;;;;;26.55;10.27;;;;;;;0.33;60.76;99341.75;4959752;28;20069;-82
2022/02/04 04:32:56;;;;;;;18.92;9.85;;;;;;;0.35;60.96;99346.03;4961825;28;20070;-81
2022/02/04 04:35:24;;;;;;;21.13;10.20;;;;;;;0.34;61.11;99330.31;4959517;28;20465;-82
2022/02/04 04:37:58;;;;;;;27.55;10.10;;;;;;;0.38;61.34;99324.03;4990796;28;20100;-88
2022/02/04 04:41:01;;;;;;;19.42;10.38;;;;;;;0.42;61.33;99334.38;4974269;28;20088;-83
2022/02/04 05:29:25;;;;;;;20.85;9.73;;;;;;;1.52;58.94;99292.09;4942239;28;20039;-84
2022/02/04 05:31:53;;;;;;;23.83;10.40;;;;;;;1.43;59.39;99292.50;4909701;28;20063;-84
2022/02/04 05:34:21;;;;;;;21.42;10.55;;;;;;;1.52;59.13;99294.72;4941960;28;20422;-80
2022/02/04 05:36:49;;;;;;;36.47;11.85;;;;;;;1.72;58.98;99285.06;4924698;28;20109;-83
2022/02/04 05:39:23;;;;;;;18.17;9.60;;;;;;;1.84;58.78;99300.34;4943611;28;20046;-80
2022/02/04 05:41:50;;;;;;;21.67;10.65;;;;;;;1.91;58.44;99288.59;4948611;28;20055;-84
2022/02/04 05:44:17;;;;;;;26.85;12.48;;;;;;;1.94;58.60;99299.84;4942104;28;20042;-88
2022/02/04 05:47:09;;;;;;;26.98;15.30;;;;;;;1.97;57.95;99283.06;4952274;28;20047;-87
2022/02/04 05:49:34;;;;;;;38.35;18.75;;;;;;;1.97;58.37;99285.69;4958890;28;20047;-80
2022/02/04 05:52:18;;;;;;;43.30;20.90;;;;;;;2.11;57.92;99283.28;4989096;28;20134;-81
2022/02/04 05:55:18;;;;;;;39.05;20.88;;;;;;;2.24;58.90;99277.41;4991416;28;20715;-86
2022/02/04 05:57:57;;;;;;;34.35;20.55;;;;;;;2.31;58.10;99284.97;4980324;28;20463;-83
2022/02/04 06:05:47;;;;;;;42.17;23.70;;;;;;;2.43;56.68;99280.88;4943501;28;20039;-84
2022/02/04 06:24:50;;;;;;;40.80;17.75;;;;;;;2.91;55.35;99268.88;4958236;28;20557;-82
2022/02/04 06:27:18;;;;;;;29.80;18.40;;;;;;;2.94;55.29;99279.28;4959322;28;20093;-82
2022/02/04 06:29:44;;;;;;;32.65;18.55;;;;;;;3.08;55.28;99271.50;4958890;28;20055;-81
2022/02/04 06:32:10;;;;;;;30.55;18.92;;;;;;;3.23;54.36;99263.75;4942592;28;20047;-84
2022/02/04 06:34:37;;;;;;;38.08;19.10;;;;;;;3.21;54.21;99250.63;4975742;28;20418;-82
2022/02/04 06:37:03;;;;;;;37.38;18.90;;;;;;;3.30;53.96;99254.56;4975251;28;20093;-80
2022/02/04 06:39:29;;;;;;;39.85;20.00;;;;;;;3.38;53.81;99249.72;4974693;28;20050;-83
2022/02/04 06:41:55;;;;;;;32.35;18.17;;;;;;;3.60;53.94;99247.66;4943175;28;20074;-83
2022/02/04 06:44:22;;;;;;;33.60;16.92;;;;;;;3.69;52.44;99250.78;4976976;28;20046;-82
2022/02/04 06:46:48;;;;;;;31.90;18.73;;;;;;;3.81;53.12;99243.03;4962736;28;20042;-83
2022/02/04 06:49:14;;;;;;;30.88;16.60;;;;;;;3.70;52.71;99241.91;4983537;28;20076;-85
2022/02/04 06:51:41;;;;;;;34.70;17.02;;;;;;;3.74;52.68;99231.09;4951602;28;20057;-87
2022/02/04 06:54:07;;;;;;;41.80;18.52;;;;;;;3.68;52.23;99233.19;4954641;28;20077;-82
2022/02/04 06:56:35;;;;;;;34.33;16.77;;;;;;;3.81;53.14;99228.97;4988271;28;20046;-86
2022/02/04 06:59:01;;;;;;;29.92;14.93;;;;;;;3.74;51.71;99227.59;4983136;28;20050;-85
2022/02/04 07:01:29;;;;;;;30.75;14.00;;;;;;;3.75;51.87;99231.94;4946528;28;20050;-85
2022/02/04 07:03:55;;;;;;;21.45;13.52;;;;;;;3.86;51.26;99237.50;4977060;28;20039;-85
2022/02/04 07:06:22;;;;;;;23.88;13.20;;;;;;;3.88;51.20;99240.94;4936634;29;20078;-86
2022/02/04 07:14:17;;;;;;;26.05;11.52;;;;;;;4.21;51.05;99232.06;4955585;29;20102;-88
2022/02/04 07:22:09;;;;;;;21.13;10.57;;;;;;;4.54;49.76;99218.72;4925726;29;20075;-84
2022/02/04 07:24:35;;;;;;;20.02;10.30;;;;;;;4.72;49.81;99225.59;4923417;29;20071;-88
2022/02/04 07:27:01;;;;;;;18.23;10.60;;;;;;;5.03;48.77;99229.94;4924162;29;20091;-87
2022/02/04 07:29:29;;;;;;;16.27;9.90;;;;;;;5.15;48.14;99220.41;4938379;29;20054;-86
2022/02/04 07:31:55;;;;;;;23.15;10.60;;;;;;;5.16;48.69;99210.69;4907253;29;20055;-87
2022/02/04 07:42:01;;;;;;;16.27;10.18;;;;;;;5.60;47.04;99195.59;4891670;29;20074;-85
2022/02/04 07:44:27;;;;;;;17.67;11.20;;;;;;;5.63;47.18;99204.28;4938055;29;20066;-83
2022/02/04 07:46:53;;;;;;;25.30;10.30;;;;;;;5.60;47.21;99195.59;4922409;29;20134;-84
2022/02/04 07:49:20;;;;;;;35.05;10.95;;;;;;;5.53;46.81;99190.75;4938308;29;20510;-80
2022/02/04 07:51:46;;;;;;;21.02;9.20;;;;;;;5.39;46.71;99191.59;4939373;29;20419;-80
2022/02/04 07:54:12;;;;;;;17.23;9.23;;;;;;;5.17;46.31;99172.66;4910027;29;20147;-83
2022/02/04 07:56:40;;;;;;;38.28;9.43;;;;;;;5.08;47.46;99177.56;4917943;29;20043;-79
2022/02/04 07:59:08;;;;;;;18.35;9.13;;;;;;;5.37;46.94;99182.88;4912313;29;20047;-82
2022/02/04 08:01:35;;;;;;;16.40;8.90;;;;;;;5.58;46.83;99170.09;4905607;29;20122;-89
2022/02/04 08:04:15;;;;;;;13.60;7.90;;;;;;;5.74;46.64;99175.28;4909355;29;20410;-81
2022/02/04 08:06:48;;;;;;;15.18;8.95;;;;;;;5.85;46.42;99167.50;4940122;29;20114;-79
2022/02/04 08:14:54;;;;;;;;;;;;;;;6.39;44.80;99167.56;4921558;29;20146;-82
2022/02/04 08:20:13;;;;;;;16.35;8.18;;;;;;;6.23;44.35;99169.53;4964537;28;20038;-87
2022/02/04 08:25:57;;;;;;;31.95;8.85;;;;;;;6.08;44.67;99152.81;4949984;28;20050;-86
2022/02/04 08:31:05;;;;;;;17.30;8.93;;;;;;;6.56;44.18;99155.84;4979028;28;20058;-86
2022/02/04 08:36:44;;;;;;;18.63;10.55;;;;;;;6.88;43.37;99153.66;4929899;29;20130;-90
2022/02/04 08:50:00;;;;;;;20.77;10.23;;;;;;;7.02;42.54;99136.78;4950197;29;20053;-90
2022/02/04 08:52:37;;;;;;;17.27;10.05;;;;;;;6.89;42.15;99123.50;4916575;29;20076;-90
2022/02/04 08:55:11;;;;;;;16.60;10.05;;;;;;;6.72;41.41;99122.00;4941390;29;20063;-88
2022/02/04 08:58:01;;;;;;;18.27;8.20;;;;;;;6.66;41.46;99135.69;4939719;29;20047;-86
2022/02/04 09:00:43;;;;;;;11.13;7.32;;;;;;;6.68;42.06;99124.97;4955344;29;20043;-88
2022/02/04 09:03:14;;;;;;;20.70;8.75;;;;;;;6.81;41.99;99125.84;4912502;29;20067;-87
2022/02/04 09:05:41;;;;;;;9.18;6.65;;;;;;;7.02;42.29;99124.34;4908873;29;20039;-89
2022/02/04 09:08:25;;;;;;;10.77;6.13;;;;;;;7.27;41.58;99112.03;4907648;29;20518;-88
2022/02/04 09:10:54;;;;;;;10.55;6.28;;;;;;;7.35;41.25;99117.66;4943824;28;20057;-92
2022/02/04 09:24:14;;;;;;;20.60;12.27;;;;;;;7.70;39.60;99093.00;4970022;28;20031;-89
2022/02/04 09:26:40;;;;;;;12.52;6.55;;;;;;;7.86;39.47;99093.63;4988453;28;20078;-92
2022/02/04 09:29:06;;;;;;;11.45;6.25;;;;;;;7.68;38.13;99079.00;4964341;28;20501;-92
2022/02/04 09:31:33;;;;;;;11.18;6.18;;;;;;;7.26;39.10;99086.41;4962609;28;20086;-87
2022/02/04 09:33:59;;;;;;;12.43;6.20;;;;;;;7.17;39.38;99079.91;4945928;28;20100;-90
2022/02/04 09:36:25;;;;;;;15.43;6.95;;;;;;;7.06;39.00;99078.00;4946614;28;20541;-91
2022/02/04 09:38:51;;;;;;;12.38;6.68;;;;;;;7.17;40.20;99079.06;4979996;28;20046;-90
2022/02/04 09:41:20;;;;;;;12.68;7.00;;;;;;;7.05;39.12;99065.69;4965090;28;20121;-90
2022/02/04 09:43:47;;;;;;;;;;;;;;;7.04;40.30;99069.31;4964661;28;20065;-90
2022/02/04 09:46:14;;;;;;;14.20;7.78;;;;;;;7.08;40.02;99067.28;4943013;29;19925;-85
2022/02/04 09:48:42;;;;;;;12.00;8.35;;;;;;;7.18;39.49;99070.13;4942993;29;20055;-89
2022/02/04 09:51:08;;;;;;;17.05;8.63;;;;;;;7.24;39.42;99064.38;4960613;28;20143;-88
2022/02/04 10:07:37;;;;;;;13.73;8.70;;;;;;;7.06;38.76;99038.13;4980657;28;20046;-94
2022/02/04 10:15:35;;;;;;;10.75;6.13;;;;;;;7.36;38.01;99020.13;4998403;28;20462;-89
2022/02/04 10:18:12;;;;;;;8.88;5.95;;;;;;;7.41;37.31;99029.47;4984603;28;20136;-92
2022/02/04 10:20:39;;;;;;;10.23;4.93;;;;;;;7.16;37.27;99026.88;4997409;28;20042;-88
2022/02/04 10:23:05;;;;;;;7.90;4.60;;;;;;;7.22;38.38;99018.44;4981449;28;20406;-91
2022/02/04 10:25:36;;;;;;;12.27;4.85;;;;;;;7.26;38.20;99030.59;4978533;28;20093;-91
2022/02/04 10:28:06;;;;;;;7.97;4.80;;;;;;;7.10;37.41;99025.47;4996711;28;20050;-93
2022/02/04 10:30:33;;;;;;;9.68;4.82;;;;;;;6.95;36.98;99021.25;4964125;28;20038;-92
2022/02/04 10:33:00;;;;;;;8.23;4.55;;;;;;;6.73;37.66;99021.91;4967475;28;20065;-92
2022/02/04 10:35:34;;;;;;;6.47;4.80;;;;;;;6.54;37.18;99014.34;4983153;28;20054;-92
2022/02/04 10:40:51;;;;;;;8.98;5.47;;;;;;;6.45;38.59;99017.66;4980697;28;20042;-89
2022/02/04 10:46:37;;;;;;;19.27;6.78;;;;;;;6.55;38.32;99008.09;4967117;28;20042;-89
2022/02/04 10:55:07;;;;;;;9.68;6.53;;;;;;;6.67;38.56;99009.06;4997072;28;20486;-86
2022/02/04 11:00:24;;;;;;;14.32;6.40;;;;;;;6.63;38.97;99004.91;4966587;28;20077;-87
2022/02/04 11:03:01;;;;;;;9.85;5.97;;;;;;;6.57;39.33;99001.72;4971438;28;20050;-90
2022/02/04 11:05:44;;;;;;;8.05;6.15;;;;;;;6.44;39.34;99000.88;5006285;28;20509;-89
2022/02/04 11:08:51;;;;;;;12.23;5.75;;;;;;;6.36;38.73;99002.31;4954964;28;20149;-87
2022/02/04 11:11:18;;;;;;;12.98;6.13;;;;;;;5.97;39.82;98996.97;4981549;28;20054;-86
2022/02/04 11:31:02;;;;;;;10.02;5.63;;;;;;;6.10;40.18;98972.28;4999370;28;20201;-90
2022/02/04 11:36:14;;;;;;;8.20;4.90;;;;;;;5.47;40.18;98974.59;4961767;28;20043;-91
2022/02/04 11:52:29;;;;;;;10.00;5.47;;;;;;;5.35;41.07;98963.00;4961541;28;20042;-89
2022/02/04 11:55:11;;;;;;;9.57;4.85;;;;;;;5.34;41.26;98960.41;4978074;28;20046;-79
2022/02/04 11:57:59;;;;;;;18.33;5.18;;;;;;;5.19;41.33;98956.09;4993598;28;20383;-87
2022/02/04 12:00:26;;;;;;;22.15;7.15;;;;;;;5.06;40.78;98940.16;4976560;28;20057;-86
2022/02/04 12:02:54;;;;;;;18.67;9.70;;;;;;;5.08;40.61;98951.53;4974750;28;20149;-79
2022/02/04 12:05:28;;;;;;;21.75;7.53;;;;;;;5.02;40.64;98944.81;4991078;28;20088;-83
2022/02/04 12:08:19;;;;;;;27.95;7.28;;;;;;;4.90;40.86;98945.59;4959685;28;20049;-88
2022/02/04 12:11:08;;;;;;;16.92;6.68;;;;;;;4.84;40.20;98941.50;4959891;28;20074;-85
2022/02/04 12:14:09;;;;;;;21.38;7.72;;;;;;;4.76;40.25;98941.16;4926261;28;20065;-86
2022/02/04 12:16:58;;;;;;;26.75;9.32;;;;;;;4.73;40.47;98928.09;4974373;28;20085;-83
2022/02/04 12:20:09;;;;;;;16.75;9.05;;;;;;;4.71;40.72;98927.34;4974152;28;20057;-84
2022/02/04 12:22:49;;;;;;;30.40;11.60;;;;;;;4.74;40.66;98934.25;4885615;29;20142;-85
2022/02/04 12:26:04;;;;;;;22.40;12.48;;;;;;;4.78;40.53;98926.03;4892264;29;20088;-84
2022/02/04 12:29:24;;;;;;;31.80;15.30;;;;;;;4.58;40.32;98898.13;4875414;29;20057;-82
2022/02/04 12:31:52;;;;;;;24.00;12.63;;;;;;;4.64;40.37;98907.50;4852910;29;20045;-83
2022/02/04 12:34:35;;;;;;;22.07;12.03;;;;;;;4.65;40.24;98900.41;4841951;29;20053;-85
2022/02/04 12:37:05;;;;;;;24.77;11.02;;;;;;;4.61;40.82;98884.72;4841119;29;20057;-82
2022/02/04 12:39:32;;;;;;;17.88;9.30;;;;;;;4.57;40.38;98875.28;4857556;29;20045;-85
2022/02/04 12:42:09;;;;;;;20.13;9.98;;;;;;;4.53;40.19;98872.91;4841311;29;20441;-84
2022/02/04 12:44:39;;;;;;;20.15;9.55;;;;;;;4.44;40.31;98866.41;4841335;29;20498;-86
2022/02/04 12:47:10;;;;;;;18.90;9.90;;;;;;;4.50;40.40;98887.19;4856679;29;20053;-83
2022/02/04 12:49:58;;;;;;;15.38;9.07;;;;;;;4.34;40.69;98867.94;4857262;29;20049;-83
2022/02/04 12:52:29;;;;;;;11.73;7.57;;;;;;;4.29;40.34;98862.94;4847390;29;20069;-86
2022/02/04 12:55:12;;;;;;;10.25;6.88;;;;;;;4.08;40.29;98867.72;4886294;29;20080;-89
2022/02/04 12:57:44;;;;;;;13.13;6.35;;;;;;;3.85;39.92;98855.06;4872866;29;20600;-86
2022/02/04 13:03:11;;;;;;;18.35;7.03;;;;;;;3.87;40.58;98866.38;4953900;28;20118;-84
2022/02/04 13:09:22;;;;;;;11.02;6.22;;;;;;;3.89;40.98;98867.16;5018764;28;20082;-84
2022/02/04 13:11:41;;;;;;;27.30;6.97;;;;;;;3.79;41.35;98871.28;4993055;28;20053;-85
2022/02/04 13:14:12;;;;;;;14.75;6.88;;;;;;;3.73;41.44;98869.03;4966022;28;20148;-86
2022/02/04 13:16:40;;;;;;;16.75;7.63;;;;;;;3.64;41.90;98868.59;4986327;28;20057;-85
2022/02/04 13:19:08;;;;;;;19.42;8.00;;;;;;;3.60;42.10;98867.09;4942197;28;20062;-85
2022/02/04 13:21:38;;;;;;;12.77;8.65;;;;;;;3.45;42.73;98865.34;4925695;29;20070;-85
2022/02/04 13:24:04;;;;;;;;;;;;;;;3.39;42.71;98871.00;4935847;29;20051;-84
2022/02/04 13:26:31;;;;;;;14.85;7.50;;;;;;;3.26;42.44;98870.00;4919455;28;19922;-86
2022/02/04 13:28:59;;;;;;;19.88;8.50;;;;;;;3.20;42.82;98872.97;4906755;28;20046;-87
2022/02/04 13:31:27;;;;;;;11.75;7.60;;;;;;;3.13;42.64;98868.06;4922829;28;20098;-87
2022/02/04 13:33:57;;;;;;;15.40;7.90;;;;;;;3.13;42.67;98868.06;4934905;29;20083;-84
2022/02/04 13:36:45;;;;;;;17.65;8.32;;;;;;;3.06;42.46;98850.88;4903942;29;20063;-85
2022/02/04 13:39:47;;;;;;;16.38;8.48;;;;;;;3.16;42.90;98873.19;4895675;29;20086;-86
2022/02/04 13:43:05;;;;;;;20.40;9.30;;;;;;;3.08;42.68;98864.81;4884436;29;20070;-86
2022/02/04 13:45:41;;;;;;;19.17;9.75;;;;;;;3.17;42.42;98858.19;4898391;29;20137;-85
2022/02/04 13:48:31;;;;;;;20.03;9.83;;;;;;;3.17;41.54;98848.47;4909320;29;20051;-85
2022/02/04 13:51:18;;;;;;;20.02;10.80;;;;;;;3.14;41.14;98864.50;4924729;29;20389;-84
2022/02/04 13:54:06;;;;;;;25.15;11.75;;;;;;;3.18;42.06;98862.53;4910651;29;20328;-89
2022/02/04 13:56:47;;;;;;;27.00;12.70;;;;;;;3.20;42.15;98862.41;4869505;29;20530;-88
2022/02/04 13:59:28;;;;;;;25.15;11.80;;;;;;;3.21;41.94;98856.22;4904741;29;20372;-86
2022/02/04 14:02:18;;;;;;;21.05;10.65;;;;;;;3.19;42.01;98847.53;4922284;29;20054;-90
2022/02/04 14:05:13;;;;;;;16.92;10.15;;;;;;;3.05;42.01;98840.41;4904794;29;20059;-86
2022/02/04 14:07:51;;;;;;;20.75;10.82;;;;;;;3.08;42.07;98854.25;4873145;29;20066;-84
2022/02/04 14:11:06;;;;;;;30.17;10.80;;;;;;;3.06;42.22;98842.09;4905468;29;20043;-85
2022/02/04 14:13:35;;;;;;;24.23;11.52;;;;;;;3.05;42.25;98838.63;4903899;29;20055;-86
2022/02/04 14:16:11;;;;;;;21.38;11.48;;;;;;;2.97;42.13;98835.56;4902961;29;20050;-86
2022/02/04 14:18:43;;;;;;;25.73;10.98;;;;;;;3.02;42.38;98838.78;4918964;29;20571;-87
2022/02/04 14:21:14;;;;;;;35.35;12.32;;;;;;;2.91;42.32;98813.00;4904076;29;20048;-88
2022/02/04 14:23:45;;;;;;;27.15;11.27;;;;;;;3.01;42.33;98818.63;4889006;29;20051;-88
2022/02/04 14:26:23;;;;;;;25.00;11.20;;;;;;;3.03;42.33;98819.38;4893573;29;20521;-87
2022/02/04 14:29:02;;;;;;;20.02;11.05;;;;;;;3.00;42.43;98823.97;4922722;29;20613;-87
2022/02/04 14:31:55;;;;;;;19.27;10.83;;;;;;;2.87;42.61;98792.16;4874046;29;20063;-86
2022/02/04 14:34:56;;;;;;;19.90;8.88;;;;;;;2.90;42.42;98815.75;4825675;29;20078;-88
2022/02/04 14:54:05;;;;;;;10.93;6.07;;;;;;;2.65;41.51;98787.25;4865632;29;20065;-88
2022/02/04 15:01:59;;;;;;;19.65;10.60;;;;;;;2.58;40.83;98781.44;4880788;29;20086;-88
2022/02/04 15:04:39;;;;;;;11.98;6.43;;;;;;;2.64;40.95;98775.00;4871962;29;20474;-88
2022/02/04 15:07:08;;;;;;;15.40;8.05;;;;;;;2.80;41.04;98790.78;4881347;29;20123;-87
2022/02/04 15:09:41;;;;;;;9.50;4.88;;;;;;;2.68;40.47;98782.63;4897199;29;20055;-87
2022/02/04 15:12:11;;;;;;;6.63;4.60;;;;;;;2.63;40.60;98770.63;4897852;29;20066;-87
2022/02/04 15:14:38;;;;;;;9.23;4.88;;;;;;;2.59;39.91;98767.31;4901905;29;20039;-87
2022/02/04 15:17:08;;;;;;;7.47;4.25;;;;;;;2.71;40.36;98757.00;4923743;28;20619;-86
2022/02/04 15:19:36;;;;;;;11.48;5.00;;;;;;;2.70;39.82;98769.34;4930586;28;20046;-88
2022/02/04 15:22:08;;;;;;;11.60;4.70;;;;;;;2.56;39.41;98751.69;4946211;28;20608;-86
2022/02/04 15:24:36;;;;;;;10.25;4.43;;;;;;;2.79;39.71;98779.41;4945572;28;20040;-88
2022/02/04 15:27:05;;;;;;;7.78;3.75;;;;;;;2.77;39.46;98764.56;4919191;28;20462;-88
2022/02/04 15:29:36;;;;;;;9.10;5.20;;;;;;;2.83;39.55;98765.09;4938721;28;20913;-85
2022/02/04 15:32:04;;;;;;;10.07;4.10;;;;;;;2.82;39.61;98754.59;4915136;28;20062;-83
2022/02/04 15:34:31;;;;;;;10.27;4.25;;;;;;;2.98;39.30;98773.91;4902245;29;20447;-85
2022/02/04 15:36:59;;;;;;;7.75;4.20;;;;;;;2.86;38.93;98753.50;4908433;29;20048;-87
2022/02/04 15:39:29;;;;;;;7.25;4.28;;;;;;;2.93;38.71;98754.81;4904166;29;20193;-89
2022/02/04 15:42:04;;;;;;;7.22;3.92;;;;;;;2.99;38.02;98765.03;4898690;29;20085;-88
2022/02/04 15:44:56;;;;;;;8.77;3.70;;;;;;;2.94;37.58;98745.97;4889495;29;20067;-87
2022/02/04 15:47:33;;;;;;;8.50;3.92;;;;;;;2.97;38.10;98751.09;4892506;29;20482;-88
2022/02/04 15:50:15;;;;;;;9.80;3.28;;;;;;;2.93;38.09;98738.97;4874816;29;20080;-86
2022/02/04 15:53:12;;;;;;;4.20;2.78;;;;;;;2.87;37.97;98726.16;4863188;29;20064;-86
2022/02/04 15:58:37;;;;;;;8.05;2.83;;;;;;;2.94;37.46;98761.81;4877726;29;20091;-88
2022/02/04 16:04:21;;;;;;;4.38;2.72;;;;;;;2.95;37.32;98758.22;4861261;29;20071;-86
2022/02/04 16:06:48;;;;;;;7.18;3.53;;;;;;;2.89;37.35;98758.59;4878056;29;20101;-89
2022/02/04 16:09:15;;;;;;;5.47;3.63;;;;;;;2.80;37.08;98754.69;4894724;29;20063;-88
2022/02/04 16:17:00;;;;;;;10.18;4.40;;;;;;;2.65;37.94;98751.16;4904214;29;20509;-92
2022/02/04 16:19:28;;;;;;;4.63;3.30;;;;;;;2.63;37.86;98754.81;4907972;29;20063;-92
2022/02/04 16:25:08;;;;;;;5.97;3.60;;;;;;;2.70;38.02;98763.22;4889142;29;20055;-86
2022/02/04 16:30:26;;;;;;;5.85;3.10;;;;;;;3.35;47.67;98756.75;4884031;29;20066;-82
2022/02/04 16:33:04;;;;;;;4.68;3.40;;;;;;;3.99;43.77;98759.88;4876091;29;20056;-86
2022/02/04 16:36:01;;;;;;;6.05;3.30;;;;;;;3.88;39.16;98738.53;4901328;29;20052;-83
2022/02/04 16:38:34;;;;;;;4.65;2.75;;;;;;;3.84;36.64;98755.56;4948247;29;20058;-82
2022/02/04 16:41:43;;;;;;;;;;;;;;;;;;;;;
2022/02/04 16:44:11;;;;;;;7.53;2.92;;;;;;;3.39;37.09;98741.56;4937693;29;20039;-85
2022/02/04 16:46:39;;;;;;;10.65;3.58;;;;;;;3.32;36.83;98733.13;4908982;29;20082;-85
2022/02/04 16:49:10;;;;;;;5.93;4.20;;;;;;;3.39;37.30;98752.97;4937164;29;20121;-86
2022/02/04 16:51:41;;;;;;;13.90;5.30;;;;;;;3.41;37.24;98756.34;4940051;29;20055;-87
2022/02/04 16:54:08;;;;;;;11.85;6.50;;;;;;;3.37;37.19;98749.56;4932696;29;20055;-88
2022/02/04 16:56:35;;;;;;;14.77;7.32;;;;;;;3.34;36.90;98744.44;4915105;29;20521;-86
2022/02/04 16:59:04;;;;;;;12.90;7.47;;;;;;;3.42;36.82;98757.19;4908597;28;20047;-85
2022/02/04 17:01:31;;;;;;;13.27;7.07;;;;;;;3.37;36.84;98748.72;4919150;28;20597;-85
2022/02/04 17:03:58;;;;;;;17.13;7.40;;;;;;;3.35;36.72;98746.16;4940275;28;20086;-86
2022/02/04 17:06:27;;;;;;;15.40;7.35;;;;;;;3.27;36.92;98752.84;4939872;28;20055;-88
2022/02/04 17:09:05;;;;;;;11.37;7.20;;;;;;;3.05;36.82;98746.19;4908330;28;20028;-83
2022/02/04 17:11:41;;;;;;;12.73;7.63;;;;;;;3.06;36.85;98754.97;4937553;29;20051;-82
2022/02/04 17:14:12;;;;;;;21.17;8.77;;;;;;;2.91;36.94;98743.50;4913028;29;20051;-83
2022/02/04 17:16:42;;;;;;;23.58;9.48;;;;;;;3.11;36.64;98764.31;4897028;29;20063;-84
2022/02/04 17:19:10;;;;;;;19.88;9.80;;;;;;;3.05;36.56;98751.47;4876177;29;20087;-84
2022/02/04 17:21:40;;;;;;;22.08;11.05;;;;;;;3.06;36.23;98760.25;4898453;29;20079;-82
2022/02/04 17:24:14;;;;;;;22.02;10.63;;;;;;;3.09;36.76;98771.50;4908561;29;20044;-84
2022/02/04 17:26:45;;;;;;;22.33;9.05;;;;;;;3.15;36.56;98776.38;4900279;29;20051;-82
2022/02/04 17:29:28;;;;;;;;;;;;;;;;;;;;;
2022/02/04 17:32:01;;;;;;;13.85;6.75;;;;;;;2.96;37.49;98762.56;4904330;29;20047;-83